createdAt,value
2019-05-10T00:08:53.541Z,23.47
2019-05-10T00:18:58.314Z,23.30
2019-05-10T00:29:03.117Z,23.30
2019-05-10T00:39:07.878Z,23.13
2019-05-10T00:49:12.675Z,25.77
2019-05-10T00:59:17.443Z,28.10
2019-05-10T01:09:22.418Z,25.13
2019-05-10T01:19:27.242Z,24.00
2019-05-10T01:29:32.114Z,21.33
2019-05-10T01:39:36.830Z,21.40
2019-05-10T01:49:41.624Z,23.10
2019-05-10T01:59:46.373Z,22.30
2019-05-10T02:09:51.336Z,24.13
2019-05-10T02:19:58.395Z,19.90
2019-05-10T02:30:03.200Z,18.30
2019-05-10T02:40:09.274Z,19.13
2019-05-10T02:50:14.388Z,17.50
2019-05-10T03:00:19.265Z,17.40
2019-05-10T03:10:24.030Z,17.93
2019-05-10T03:20:29.824Z,19.60
2019-05-10T03:30:34.594Z,19.40
2019-05-10T03:40:39.340Z,18.43
2019-05-10T03:50:44.110Z,17.60
2019-05-10T04:00:50.264Z,16.60
2019-05-10T04:10:55.041Z,17.73
2019-05-10T04:20:59.840Z,17.83
2019-05-10T04:31:04.622Z,27.13
2019-05-10T04:41:09.434Z,19.20
2019-05-10T04:51:15.243Z,17.60
2019-05-10T05:01:20.026Z,17.60
2019-05-10T05:11:24.835Z,19.30
2019-05-10T05:21:29.696Z,20.47
2019-05-10T05:31:34.484Z,19.27
2019-05-10T05:41:49.302Z,17.83
2019-05-10T05:51:46.459Z,17.00
2019-05-10T06:01:51.278Z,16.10
2019-05-10T06:11:56.108Z,17.10
2019-05-10T06:22:04.461Z,17.03
2019-05-10T06:32:09.294Z,17.00
2019-05-10T06:42:14.657Z,17.50
2019-05-10T06:52:21.783Z,14.93
2019-05-10T07:02:32.155Z,15.27
2019-05-10T07:12:34.176Z,16.03
2019-05-10T07:22:39.571Z,15.57
2019-05-10T07:32:44.984Z,15.43
2019-05-10T07:42:50.373Z,14.80
2019-05-10T07:52:55.746Z,12.93
2019-05-10T08:03:12.381Z,12.93
2019-05-10T08:13:08.520Z,10.20
2019-05-10T08:23:17.958Z,10.47
2019-05-10T08:33:22.753Z,10.27
2019-05-10T08:43:33.163Z,10.83
2019-05-10T08:53:33.678Z,8.33
2019-05-10T09:03:38.464Z,7.70
2019-05-10T09:13:46.226Z,6.77
2019-05-10T09:24:01.290Z,7.47
2019-05-10T09:33:58.187Z,5.90
2019-05-10T09:44:03.171Z,5.90
2019-05-10T09:54:08.199Z,6.50
2019-05-10T10:04:37.602Z,6.90
2019-05-10T10:14:48.313Z,5.70
2019-05-10T10:24:54.989Z,5.70
2019-05-10T10:34:59.462Z,5.53
2019-05-10T10:45:07.375Z,5.07
2019-05-10T10:55:13.785Z,5.60
2019-05-10T11:05:18.562Z,4.70
2019-05-10T11:15:28.270Z,3.93
2019-05-10T11:25:29.695Z,3.57
2019-05-10T11:35:34.817Z,2.30
2019-05-10T11:45:43.684Z,2.20
2019-05-10T11:55:45.992Z,3.97
2019-05-10T12:05:53.187Z,5.77
2019-05-10T12:15:57.197Z,5.03
2019-05-10T12:27:12.918Z,7.90
2019-05-10T12:36:13.473Z,7.60
2019-05-10T12:46:14.846Z,11.67
2019-05-10T12:56:19.604Z,10.13
2019-05-10T13:06:24.415Z,7.87
2019-05-10T13:16:29.183Z,5.30
2019-05-10T13:26:33.985Z,4.60
2019-05-10T13:36:39.034Z,4.60
2019-05-10T13:46:44.099Z,6.07
2019-05-10T13:56:52.393Z,7.70
2019-05-10T14:06:55.309Z,9.10
2019-05-10T14:17:00.085Z,7.13
2019-05-10T14:27:04.834Z,5.03
2019-05-10T14:37:14.340Z,3.10
2019-05-10T14:47:19.444Z,4.20
2019-05-10T14:57:24.243Z,5.40
2019-05-10T15:07:29.011Z,6.70
2019-05-10T15:17:33.776Z,6.17
2019-05-10T15:27:38.539Z,7.07
2019-05-10T15:37:46.285Z,7.80
2019-05-10T15:47:51.662Z,6.70
2019-05-10T15:57:57.737Z,6.80
2019-05-10T16:08:03.007Z,8.67
2019-05-10T16:18:08.403Z,7.20
2019-05-10T16:28:15.515Z,7.33
2019-05-10T16:38:21.491Z,9.40
2019-05-10T16:48:28.438Z,9.60
2019-05-10T16:58:34.257Z,7.90
2019-05-10T17:08:39.626Z,8.57
2019-05-10T17:18:49.613Z,8.53
2019-05-10T17:28:50.939Z,5.40
2019-05-10T17:38:56.147Z,6.10
2019-05-10T17:49:01.594Z,8.43
2019-05-10T17:59:12.033Z,9.30
2019-05-10T18:09:14.030Z,7.53
2019-05-10T18:19:24.557Z,10.20
2019-05-10T18:29:29.327Z,11.33
2019-05-10T18:39:34.715Z,14.53
2019-05-10T18:49:40.092Z,20.43
2019-05-10T18:59:47.038Z,21.03
2019-05-10T19:09:54.314Z,22.53
2019-05-10T19:19:59.761Z,27.13
2019-05-10T19:30:06.289Z,22.50
2019-05-10T19:40:11.318Z,38.87
2019-05-10T19:50:16.193Z,37.93
2019-05-10T20:00:21.076Z,42.43
2019-05-10T20:10:26.850Z,45.30
2019-05-10T20:20:31.677Z,44.20
2019-05-10T20:30:36.449Z,44.33
2019-05-10T20:40:41.226Z,43.13
2019-05-10T20:50:46.087Z,40.10
2019-05-10T21:00:50.845Z,43.20
2019-05-10T21:10:55.643Z,37.40
2019-05-10T21:21:00.801Z,40.23
2019-05-10T21:31:06.231Z,29.40
2019-05-10T21:41:11.602Z,24.00
2019-05-10T21:51:16.980Z,19.73
2019-05-10T22:01:28.874Z,19.57
2019-05-10T22:11:34.217Z,15.33
2019-05-10T22:21:39.583Z,13.83
2019-05-10T22:31:44.965Z,17.87
2019-05-10T22:41:52.972Z,19.87
2019-05-10T22:51:57.455Z,19.43
2019-05-10T23:02:02.910Z,22.17
2019-05-10T23:12:08.392Z,23.30
2019-05-10T23:22:13.755Z,17.53
2019-05-10T23:32:19.658Z,16.30
2019-05-10T23:42:25.015Z,28.70
2019-05-10T23:52:30.395Z,29.13
